sensor_id;sensor_type;location;lat;lon;timestamp;pressure;altitude;pressure_sealevel;temperature
68588;BMP180;55560;52.174;20.996;2022-11-11T08:08:04;101773.00;;;10.50
68588;BMP180;55560;52.174;20.996;2022-11-11T08:10:54;101775.60;;;10.50
68588;BMP180;55560;52.174;20.996;2022-11-11T08:13:42;101775.20;;;10.58
68588;BMP180;55560;52.174;20.996;2022-11-11T08:16:29;101778.60;;;10.60
68588;BMP180;55560;52.174;20.996;2022-11-11T08:19:16;101781.80;;;10.60
68588;BMP180;55560;52.174;20.996;2022-11-11T08:22:02;101789.80;;;10.60
68588;BMP180;55560;52.174;20.996;2022-11-11T08:24:49;101787.60;;;10.70
68588;BMP180;55560;52.174;20.996;2022-11-11T08:27:58;101782.40;;;10.70
68588;BMP180;55560;52.174;20.996;2022-11-11T08:30:44;101779.40;;;10.76
68588;BMP180;55560;52.174;20.996;2022-11-11T08:33:31;101782.40;;;10.80
68588;BMP180;55560;52.174;20.996;2022-11-11T08:36:21;101787.20;;;10.90
68588;BMP180;55560;52.174;20.996;2022-11-11T08:39:09;101789.00;;;10.90
68588;BMP180;55560;52.174;20.996;2022-11-11T08:41:57;101795.00;;;11.00
68588;BMP180;55560;52.174;20.996;2022-11-11T08:44:44;101795.80;;;11.00
68588;BMP180;55560;52.174;20.996;2022-11-11T08:47:30;101795.80;;;11.10
68588;BMP180;55560;52.174;20.996;2022-11-11T08:50:17;101791.40;;;11.10
68588;BMP180;55560;52.174;20.996;2022-11-11T08:53:07;101785.40;;;11.20
68588;BMP180;55560;52.174;20.996;2022-11-11T08:55:54;101785.80;;;11.20
68588;BMP180;55560;52.174;20.996;2022-11-11T08:58:40;101791.00;;;11.30
68588;BMP180;55560;52.174;20.996;2022-11-11T09:01:27;101789.00;;;11.30
68588;BMP180;55560;52.174;20.996;2022-11-11T09:04:15;101794.60;;;11.34
68588;BMP180;55560;52.174;20.996;2022-11-11T09:07:23;101799.00;;;11.40
68588;BMP180;55560;52.174;20.996;2022-11-11T09:10:10;101799.00;;;11.42
68588;BMP180;55560;52.174;20.996;2022-11-11T09:12:58;101801.80;;;11.50
68588;BMP180;55560;52.174;20.996;2022-11-11T09:15:44;101806.60;;;11.50
68588;BMP180;55560;52.174;20.996;2022-11-11T09:18:31;101804.60;;;11.60
68588;BMP180;55560;52.174;20.996;2022-11-11T09:21:17;101801.60;;;11.60
68588;BMP180;55560;52.174;20.996;2022-11-11T09:24:05;101792.20;;;11.60
68588;BMP180;55560;52.174;20.996;2022-11-11T09:26:52;101787.60;;;11.70
68588;BMP180;55560;52.174;20.996;2022-11-11T09:29:39;101789.60;;;11.70
68588;BMP180;55560;52.174;20.996;2022-11-11T09:32:25;101786.80;;;11.78
68588;BMP180;55560;52.174;20.996;2022-11-11T09:35:12;101784.00;;;11.80
68588;BMP180;55560;52.174;20.996;2022-11-11T09:38:00;101783.00;;;11.80
68588;BMP180;55560;52.174;20.996;2022-11-11T09:44:00;101778.60;;;11.90
68588;BMP180;55560;52.174;20.996;2022-11-11T09:47:02;101772.60;;;11.90
68588;BMP180;55560;52.174;20.996;2022-11-11T09:50:00;101779.00;;;12.00
68588;BMP180;55560;52.174;20.996;2022-11-11T09:56:06;101781.40;;;12.00
68588;BMP180;55560;52.174;20.996;2022-11-11T09:59:26;101786.60;;;12.10
68588;BMP180;55560;52.174;20.996;2022-11-11T10:02:28;101773.20;;;12.10
68588;BMP180;55560;52.174;20.996;2022-11-11T10:08:24;101765.20;;;12.16
68588;BMP180;55560;52.174;20.996;2022-11-11T10:11:58;101769.20;;;12.20
68588;BMP180;55560;52.174;20.996;2022-11-11T10:14:47;101758.40;;;12.20
68588;BMP180;55560;52.174;20.996;2022-11-11T10:21:14;101750.00;;;12.20
68588;BMP180;55560;52.174;20.996;2022-11-11T10:24:05;101753.40;;;12.26
68588;BMP180;55560;52.174;20.996;2022-11-11T10:27:00;101758.40;;;12.30
68588;BMP180;55560;52.174;20.996;2022-11-11T10:29:49;101747.20;;;12.30
68588;BMP180;55560;52.174;20.996;2022-11-11T10:32:36;101742.20;;;12.30
68588;BMP180;55560;52.174;20.996;2022-11-11T10:35:31;101736.20;;;12.30
68588;BMP180;55560;52.174;20.996;2022-11-11T10:38:43;101732.40;;;12.30
68588;BMP180;55560;52.174;20.996;2022-11-11T10:41:46;101733.80;;;12.30
68588;BMP180;55560;52.174;20.996;2022-11-11T10:44:34;101754.40;;;12.30
68588;BMP180;55560;52.174;20.996;2022-11-11T10:47:53;101750.80;;;12.40
68588;BMP180;55560;52.174;20.996;2022-11-11T10:50:49;101747.60;;;12.40
68588;BMP180;55560;52.174;20.996;2022-11-11T10:54:05;101749.00;;;12.40
68588;BMP180;55560;52.174;20.996;2022-11-11T10:57:08;101758.60;;;12.40
68588;BMP180;55560;52.174;20.996;2022-11-11T11:00:08;101753.20;;;12.50
68588;BMP180;55560;52.174;20.996;2022-11-11T11:03:23;101746.00;;;12.50
68588;BMP180;55560;52.174;20.996;2022-11-11T11:06:24;101743.00;;;12.52
68588;BMP180;55560;52.174;20.996;2022-11-11T11:09:44;101743.40;;;12.52
68588;BMP180;55560;52.174;20.996;2022-11-11T11:13:07;101740.80;;;12.60
68588;BMP180;55560;52.174;20.996;2022-11-11T11:16:02;101743.40;;;12.60
68588;BMP180;55560;52.174;20.996;2022-11-11T11:19:20;101733.00;;;12.60
68588;BMP180;55560;52.174;20.996;2022-11-11T11:22:07;101731.40;;;12.60
68588;BMP180;55560;52.174;20.996;2022-11-11T11:25:09;101728.80;;;12.60
68588;BMP180;55560;52.174;20.996;2022-11-11T11:28:09;101733.20;;;12.60
68588;BMP180;55560;52.174;20.996;2022-11-11T11:31:06;101721.20;;;12.60
68588;BMP180;55560;52.174;20.996;2022-11-11T11:33:55;101714.80;;;12.70
68588;BMP180;55560;52.174;20.996;2022-11-11T11:36:41;101710.80;;;12.70
68588;BMP180;55560;52.174;20.996;2022-11-11T11:39:36;101709.40;;;12.70
68588;BMP180;55560;52.174;20.996;2022-11-11T11:42:32;101709.00;;;12.80
68588;BMP180;55560;52.174;20.996;2022-11-11T11:45:27;101705.60;;;12.80
68588;BMP180;55560;52.174;20.996;2022-11-11T11:54:57;101716.60;;;12.80
68588;BMP180;55560;52.174;20.996;2022-11-11T12:00:52;101720.00;;;12.80
68588;BMP180;55560;52.174;20.996;2022-11-11T12:13:20;101702.40;;;12.80
68588;BMP180;55560;52.174;20.996;2022-11-11T12:17:29;101701.00;;;12.80
68588;BMP180;55560;52.174;20.996;2022-11-11T12:20:26;101706.80;;;12.80
68588;BMP180;55560;52.174;20.996;2022-11-11T12:26:44;101713.40;;;12.82
68588;BMP180;55560;52.174;20.996;2022-11-11T12:33:41;101720.80;;;12.86
68588;BMP180;55560;52.174;20.996;2022-11-11T12:47:21;101731.60;;;12.80
68588;BMP180;55560;52.174;20.996;2022-11-11T13:00:25;101740.60;;;12.80
68588;BMP180;55560;52.174;20.996;2022-11-11T13:10:24;101703.00;;;12.80
68588;BMP180;55560;52.174;20.996;2022-11-11T13:13:38;101702.20;;;12.80
68588;BMP180;55560;52.174;20.996;2022-11-11T13:16:29;101707.00;;;12.70
68588;BMP180;55560;52.174;20.996;2022-11-11T13:19:45;101715.40;;;12.70
68588;BMP180;55560;52.174;20.996;2022-11-11T13:22:33;101711.60;;;12.70
68588;BMP180;55560;52.174;20.996;2022-11-11T13:25:23;101710.80;;;12.68
68588;BMP180;55560;52.174;20.996;2022-11-11T13:28:25;101711.80;;;12.68
68588;BMP180;55560;52.174;20.996;2022-11-11T13:31:34;101710.20;;;12.70
68588;BMP180;55560;52.174;20.996;2022-11-11T13:34:22;101699.40;;;12.64
68588;BMP180;55560;52.174;20.996;2022-11-11T13:37:22;101698.60;;;12.70
68588;BMP180;55560;52.174;20.996;2022-11-11T13:40:39;101698.80;;;12.60
68588;BMP180;55560;52.174;20.996;2022-11-11T13:43:42;101696.80;;;12.60
68588;BMP180;55560;52.174;20.996;2022-11-11T13:46:47;101709.20;;;12.60
68588;BMP180;55560;52.174;20.996;2022-11-11T13:49:42;101705.80;;;12.60
68588;BMP180;55560;52.174;20.996;2022-11-11T13:52:35;101706.20;;;12.50
68588;BMP180;55560;52.174;20.996;2022-11-11T13:58:33;101700.60;;;12.50
68588;BMP180;55560;52.174;20.996;2022-11-11T14:01:20;101702.60;;;12.42
68588;BMP180;55560;52.174;20.996;2022-11-11T14:04:10;101701.60;;;12.40
68588;BMP180;55560;52.174;20.996;2022-11-11T14:06:57;101706.40;;;12.40
68588;BMP180;55560;52.174;20.996;2022-11-11T14:09:56;101705.80;;;12.40
68588;BMP180;55560;52.174;20.996;2022-11-11T14:16:10;101714.00;;;12.30
68588;BMP180;55560;52.174;20.996;2022-11-11T14:18:56;101714.00;;;12.30
68588;BMP180;55560;52.174;20.996;2022-11-11T14:21:47;101713.00;;;12.30
68588;BMP180;55560;52.174;20.996;2022-11-11T14:24:42;101712.80;;;12.30
68588;BMP180;55560;52.174;20.996;2022-11-11T14:27:31;101708.00;;;12.20
68588;BMP180;55560;52.174;20.996;2022-11-11T14:30:33;101713.60;;;12.20
68588;BMP180;55560;52.174;20.996;2022-11-11T14:33:54;101709.40;;;12.20
68588;BMP180;55560;52.174;20.996;2022-11-11T14:36:54;101718.60;;;12.16
68588;BMP180;55560;52.174;20.996;2022-11-11T14:39:53;101721.60;;;12.10
68588;BMP180;55560;52.174;20.996;2022-11-11T14:42:41;101717.00;;;12.10
68588;BMP180;55560;52.174;20.996;2022-11-11T14:48:57;101723.80;;;12.00
68588;BMP180;55560;52.174;20.996;2022-11-11T14:51:48;101728.00;;;12.00
68588;BMP180;55560;52.174;20.996;2022-11-11T14:55:00;101729.40;;;12.00
68588;BMP180;55560;52.174;20.996;2022-11-11T15:01:11;101725.40;;;11.90
68588;BMP180;55560;52.174;20.996;2022-11-11T15:04:02;101734.00;;;11.90
68588;BMP180;55560;52.174;20.996;2022-11-11T15:06:58;101720.20;;;11.90
68588;BMP180;55560;52.174;20.996;2022-11-11T15:23:04;101734.20;;;11.78
68588;BMP180;55560;52.174;20.996;2022-11-11T15:26:30;101743.60;;;11.70
68588;BMP180;55560;52.174;20.996;2022-11-11T15:29:57;101742.80;;;11.70
68588;BMP180;55560;52.174;20.996;2022-11-11T15:33:25;101745.20;;;11.60
68588;BMP180;55560;52.174;20.996;2022-11-11T15:39:47;101733.20;;;11.54
68588;BMP180;55560;52.174;20.996;2022-11-11T15:42:37;101739.40;;;11.50
68588;BMP180;55560;52.174;20.996;2022-11-11T15:45:32;101740.40;;;11.50
68588;BMP180;55560;52.174;20.996;2022-11-11T15:48:34;101742.60;;;11.50
68588;BMP180;55560;52.174;20.996;2022-11-11T15:57:29;101764.20;;;11.50
68588;BMP180;55560;52.174;20.996;2022-11-11T16:00:33;101765.80;;;11.50
68588;BMP180;55560;52.174;20.996;2022-11-11T16:03:40;101761.60;;;11.50
68588;BMP180;55560;52.174;20.996;2022-11-11T16:06:27;101761.80;;;11.50
68588;BMP180;55560;52.174;20.996;2022-11-11T16:09:18;101772.60;;;11.50
68588;BMP180;55560;52.174;20.996;2022-11-11T16:12:09;101771.20;;;11.50
68588;BMP180;55560;52.174;20.996;2022-11-11T16:14:57;101770.40;;;11.50
68588;BMP180;55560;52.174;20.996;2022-11-11T16:17:46;101775.40;;;11.50
68588;BMP180;55560;52.174;20.996;2022-11-11T16:20:42;101776.80;;;11.50
68588;BMP180;55560;52.174;20.996;2022-11-11T16:23:32;101775.20;;;11.50
68588;BMP180;55560;52.174;20.996;2022-11-11T16:26:20;101764.00;;;11.50
68588;BMP180;55560;52.174;20.996;2022-11-11T16:29:13;101760.20;;;11.56
68588;BMP180;55560;52.174;20.996;2022-11-11T16:32:01;101761.20;;;11.52
68588;BMP180;55560;52.174;20.996;2022-11-11T16:34:54;101764.00;;;11.50
68588;BMP180;55560;52.174;20.996;2022-11-11T16:37:53;101764.60;;;11.50
68588;BMP180;55560;52.174;20.996;2022-11-11T16:40:41;101765.00;;;11.50
68588;BMP180;55560;52.174;20.996;2022-11-11T16:43:41;101758.60;;;11.50
68588;BMP180;55560;52.174;20.996;2022-11-11T16:49:40;101746.20;;;11.60
68588;BMP180;55560;52.174;20.996;2022-11-11T16:52:28;101742.40;;;11.60
68588;BMP180;55560;52.174;20.996;2022-11-11T16:55:53;101749.20;;;11.60
68588;BMP180;55560;52.174;20.996;2022-11-11T16:58:40;101753.80;;;11.52
68588;BMP180;55560;52.174;20.996;2022-11-11T17:01:29;101754.60;;;11.50
68588;BMP180;55560;52.174;20.996;2022-11-11T17:04:25;101752.00;;;11.56
68588;BMP180;55560;52.174;20.996;2022-11-11T17:07:37;101756.00;;;11.54
68588;BMP180;55560;52.174;20.996;2022-11-11T17:10:24;101753.60;;;11.50
68588;BMP180;55560;52.174;20.996;2022-11-11T17:13:11;101760.80;;;11.50
68588;BMP180;55560;52.174;20.996;2022-11-11T17:16:04;101766.00;;;11.52
68588;BMP180;55560;52.174;20.996;2022-11-11T17:18:53;101771.60;;;11.50
68588;BMP180;55560;52.174;20.996;2022-11-11T17:21:40;101778.20;;;11.54
68588;BMP180;55560;52.174;20.996;2022-11-11T17:24:29;101792.00;;;11.50
68588;BMP180;55560;52.174;20.996;2022-11-11T17:27:16;101797.20;;;11.58
68588;BMP180;55560;52.174;20.996;2022-11-11T17:30:03;101795.40;;;11.50
68588;BMP180;55560;52.174;20.996;2022-11-11T17:32:49;101797.40;;;11.50
68588;BMP180;55560;52.174;20.996;2022-11-11T17:35:36;101802.60;;;11.50
68588;BMP180;55560;52.174;20.996;2022-11-11T17:38:23;101797.20;;;11.50
68588;BMP180;55560;52.174;20.996;2022-11-11T17:41:13;101795.40;;;11.50
68588;BMP180;55560;52.174;20.996;2022-11-11T17:44:00;101801.60;;;11.50
68588;BMP180;55560;52.174;20.996;2022-11-11T17:46:47;101804.00;;;11.50
68588;BMP180;55560;52.174;20.996;2022-11-11T17:49:33;101797.40;;;11.50
68588;BMP180;55560;52.174;20.996;2022-11-11T17:52:40;101798.80;;;11.50
68588;BMP180;55560;52.174;20.996;2022-11-11T17:55:26;101791.80;;;11.50
68588;BMP180;55560;52.174;20.996;2022-11-11T17:58:13;101789.80;;;11.52
68588;BMP180;55560;52.174;20.996;2022-11-11T18:01:09;101791.00;;;11.60
68588;BMP180;55560;52.174;20.996;2022-11-11T18:03:56;101793.80;;;11.60
68588;BMP180;55560;52.174;20.996;2022-11-11T18:06:43;101789.40;;;11.50
68588;BMP180;55560;52.174;20.996;2022-11-11T18:09:30;101794.60;;;11.50
68588;BMP180;55560;52.174;20.996;2022-11-11T18:12:17;101796.60;;;11.50
68588;BMP180;55560;52.174;20.996;2022-11-11T18:15:05;101793.20;;;11.54
68588;BMP180;55560;52.174;20.996;2022-11-11T18:17:51;101788.00;;;11.54
68588;BMP180;55560;52.174;20.996;2022-11-11T18:20:38;101785.00;;;11.60
68588;BMP180;55560;52.174;20.996;2022-11-11T18:23:32;101784.40;;;11.60
68588;BMP180;55560;52.174;20.996;2022-11-11T18:26:19;101770.80;;;11.58
68588;BMP180;55560;52.174;20.996;2022-11-11T18:29:09;101765.80;;;11.50
68588;BMP180;55560;52.174;20.996;2022-11-11T18:31:56;101768.80;;;11.50
68588;BMP180;55560;52.174;20.996;2022-11-11T18:34:44;101763.00;;;11.50
68588;BMP180;55560;52.174;20.996;2022-11-11T18:37:31;101763.80;;;11.50
68588;BMP180;55560;52.174;20.996;2022-11-11T18:40:17;101771.00;;;11.50
68588;BMP180;55560;52.174;20.996;2022-11-11T18:43:04;101779.80;;;11.50
68588;BMP180;55560;52.174;20.996;2022-11-11T18:45:50;101782.80;;;11.50
68588;BMP180;55560;52.174;20.996;2022-11-11T18:48:39;101785.80;;;11.50
68588;BMP180;55560;52.174;20.996;2022-11-11T18:51:27;101797.00;;;11.50
68588;BMP180;55560;52.174;20.996;2022-11-11T18:54:16;101795.80;;;11.48
68588;BMP180;55560;52.174;20.996;2022-11-11T18:57:02;101796.00;;;11.44
68588;BMP180;55560;52.174;20.996;2022-11-11T18:59:49;101802.60;;;11.46
68588;BMP180;55560;52.174;20.996;2022-11-11T19:02:35;101806.60;;;11.42
68588;BMP180;55560;52.174;20.996;2022-11-11T19:05:22;101805.60;;;11.40
68588;BMP180;55560;52.174;20.996;2022-11-11T19:08:09;101805.60;;;11.40
68588;BMP180;55560;52.174;20.996;2022-11-11T19:10:57;101803.80;;;11.40
68588;BMP180;55560;52.174;20.996;2022-11-11T19:13:43;101808.60;;;11.40
68588;BMP180;55560;52.174;20.996;2022-11-11T19:16:30;101812.20;;;11.40
68588;BMP180;55560;52.174;20.996;2022-11-11T19:19:17;101819.20;;;11.40
68588;BMP180;55560;52.174;20.996;2022-11-11T19:22:04;101823.80;;;11.40
68588;BMP180;55560;52.174;20.996;2022-11-11T19:24:50;101828.60;;;11.40
68588;BMP180;55560;52.174;20.996;2022-11-11T19:27:37;101826.40;;;11.38
68588;BMP180;55560;52.174;20.996;2022-11-11T19:30:24;101833.00;;;11.30
68588;BMP180;55560;52.174;20.996;2022-11-11T19:33:10;101836.20;;;11.30
68588;BMP180;55560;52.174;20.996;2022-11-11T19:36:01;101835.20;;;11.30
68588;BMP180;55560;52.174;20.996;2022-11-11T19:38:48;101846.20;;;11.30
68588;BMP180;55560;52.174;20.996;2022-11-11T19:41:35;101843.60;;;11.20
68588;BMP180;55560;52.174;20.996;2022-11-11T19:44:21;101847.80;;;11.20
68588;BMP180;55560;52.174;20.996;2022-11-11T19:47:07;101847.40;;;11.20
68588;BMP180;55560;52.174;20.996;2022-11-11T19:49:54;101856.80;;;11.20
68588;BMP180;55560;52.174;20.996;2022-11-11T19:52:40;101855.80;;;11.20
68588;BMP180;55560;52.174;20.996;2022-11-11T19:55:27;101861.60;;;11.20
68588;BMP180;55560;52.174;20.996;2022-11-11T19:58:14;101858.20;;;11.20
68588;BMP180;55560;52.174;20.996;2022-11-11T20:01:13;101859.20;;;11.20
68588;BMP180;55560;52.174;20.996;2022-11-11T20:04:00;101863.00;;;11.20
68588;BMP180;55560;52.174;20.996;2022-11-11T20:06:47;101858.80;;;11.20
68588;BMP180;55560;52.174;20.996;2022-11-11T20:09:33;101854.00;;;11.20
68588;BMP180;55560;52.174;20.996;2022-11-11T20:12:20;101854.40;;;11.10
68588;BMP180;55560;52.174;20.996;2022-11-11T20:15:07;101850.20;;;11.10
68588;BMP180;55560;52.174;20.996;2022-11-11T20:17:55;101846.80;;;11.10
68588;BMP180;55560;52.174;20.996;2022-11-11T20:20:41;101846.80;;;11.12
68588;BMP180;55560;52.174;20.996;2022-11-11T20:23:29;101841.00;;;11.10
68588;BMP180;55560;52.174;20.996;2022-11-11T20:26:16;101836.00;;;11.16
68588;BMP180;55560;52.174;20.996;2022-11-11T20:29:02;101831.60;;;11.20
68588;BMP180;55560;52.174;20.996;2022-11-11T20:31:49;101837.00;;;11.20
68588;BMP180;55560;52.174;20.996;2022-11-11T20:34:36;101849.40;;;11.26
68588;BMP180;55560;52.174;20.996;2022-11-11T20:37:23;101859.40;;;11.20
68588;BMP180;55560;52.174;20.996;2022-11-11T20:40:10;101850.80;;;11.20
68588;BMP180;55560;52.174;20.996;2022-11-11T20:42:59;101853.40;;;11.20
68588;BMP180;55560;52.174;20.996;2022-11-11T20:45:46;101856.00;;;11.20
68588;BMP180;55560;52.174;20.996;2022-11-11T20:48:33;101866.00;;;11.20
68588;BMP180;55560;52.174;20.996;2022-11-11T20:51:22;101877.40;;;11.22
68588;BMP180;55560;52.174;20.996;2022-11-11T20:54:09;101870.00;;;11.24
68588;BMP180;55560;52.174;20.996;2022-11-11T20:56:56;101872.00;;;11.20
68588;BMP180;55560;52.174;20.996;2022-11-11T20:59:42;101868.80;;;11.20
68588;BMP180;55560;52.174;20.996;2022-11-11T21:02:29;101870.40;;;11.20
68588;BMP180;55560;52.174;20.996;2022-11-11T21:05:16;101874.00;;;11.20
68588;BMP180;55560;52.174;20.996;2022-11-11T21:08:03;101876.60;;;11.20
68588;BMP180;55560;52.174;20.996;2022-11-11T21:10:53;101879.60;;;11.20
68588;BMP180;55560;52.174;20.996;2022-11-11T21:13:41;101883.20;;;11.20
68588;BMP180;55560;52.174;20.996;2022-11-11T21:16:31;101877.60;;;11.20
68588;BMP180;55560;52.174;20.996;2022-11-11T21:19:18;101876.20;;;11.20
68588;BMP180;55560;52.174;20.996;2022-11-11T21:22:04;101871.00;;;11.20
68588;BMP180;55560;52.174;20.996;2022-11-11T21:24:56;101873.80;;;11.20
68588;BMP180;55560;52.174;20.996;2022-11-11T21:27:42;101878.60;;;11.20
68588;BMP180;55560;52.174;20.996;2022-11-11T21:30:28;101874.60;;;11.20
68588;BMP180;55560;52.174;20.996;2022-11-11T21:33:15;101875.00;;;11.20
68588;BMP180;55560;52.174;20.996;2022-11-11T21:36:06;101866.60;;;11.20
68588;BMP180;55560;52.174;20.996;2022-11-11T21:38:54;101867.40;;;11.20
68588;BMP180;55560;52.174;20.996;2022-11-11T21:41:40;101874.40;;;11.20
68588;BMP180;55560;52.174;20.996;2022-11-11T21:44:27;101874.20;;;11.20
68588;BMP180;55560;52.174;20.996;2022-11-11T21:47:14;101875.80;;;11.20
68588;BMP180;55560;52.174;20.996;2022-11-11T21:50:00;101871.20;;;11.20
68588;BMP180;55560;52.174;20.996;2022-11-11T21:52:47;101875.80;;;11.20
68588;BMP180;55560;52.174;20.996;2022-11-11T21:55:33;101878.40;;;11.20
68588;BMP180;55560;52.174;20.996;2022-11-11T21:58:20;101879.60;;;11.20
68588;BMP180;55560;52.174;20.996;2022-11-11T22:01:10;101885.00;;;11.20
68588;BMP180;55560;52.174;20.996;2022-11-11T22:04:01;101884.00;;;11.20
68588;BMP180;55560;52.174;20.996;2022-11-11T22:06:48;101889.60;;;11.20
68588;BMP180;55560;52.174;20.996;2022-11-11T22:09:35;101887.00;;;11.20
68588;BMP180;55560;52.174;20.996;2022-11-11T22:12:21;101900.40;;;11.20
68588;BMP180;55560;52.174;20.996;2022-11-11T22:15:08;101893.00;;;11.20
68588;BMP180;55560;52.174;20.996;2022-11-11T22:17:54;101892.40;;;11.22
68588;BMP180;55560;52.174;20.996;2022-11-11T22:20:41;101893.80;;;11.20
68588;BMP180;55560;52.174;20.996;2022-11-11T22:23:27;101892.80;;;11.20
68588;BMP180;55560;52.174;20.996;2022-11-11T22:26:15;101887.20;;;11.20
68588;BMP180;55560;52.174;20.996;2022-11-11T22:29:04;101890.60;;;11.30
68588;BMP180;55560;52.174;20.996;2022-11-11T22:31:51;101890.60;;;11.28
68588;BMP180;55560;52.174;20.996;2022-11-11T22:34:38;101886.80;;;11.26
68588;BMP180;55560;52.174;20.996;2022-11-11T22:37:24;101894.40;;;11.30
68588;BMP180;55560;52.174;20.996;2022-11-11T22:40:11;101898.40;;;11.30
68588;BMP180;55560;52.174;20.996;2022-11-11T22:42:57;101899.20;;;11.30
68588;BMP180;55560;52.174;20.996;2022-11-11T22:45:56;101896.40;;;11.30
68588;BMP180;55560;52.174;20.996;2022-11-11T22:48:54;101887.60;;;11.30
68588;BMP180;55560;52.174;20.996;2022-11-11T22:51:42;101889.60;;;11.30
68588;BMP180;55560;52.174;20.996;2022-11-11T22:54:31;101889.20;;;11.30
68588;BMP180;55560;52.174;20.996;2022-11-11T22:57:17;101890.80;;;11.30
68588;BMP180;55560;52.174;20.996;2022-11-11T23:00:05;101883.00;;;11.30
68588;BMP180;55560;52.174;20.996;2022-11-11T23:02:52;101888.00;;;11.40
68588;BMP180;55560;52.174;20.996;2022-11-11T23:05:38;101887.80;;;11.40
68588;BMP180;55560;52.174;20.996;2022-11-11T23:08:25;101889.20;;;11.40
68588;BMP180;55560;52.174;20.996;2022-11-11T23:11:18;101890.20;;;11.40
68588;BMP180;55560;52.174;20.996;2022-11-11T23:14:14;101882.80;;;11.32
68588;BMP180;55560;52.174;20.996;2022-11-11T23:17:01;101887.40;;;11.40
68588;BMP180;55560;52.174;20.996;2022-11-11T23:19:48;101887.60;;;11.40
68588;BMP180;55560;52.174;20.996;2022-11-11T23:22:34;101889.00;;;11.40
68588;BMP180;55560;52.174;20.996;2022-11-11T23:25:21;101895.00;;;11.40
68588;BMP180;55560;52.174;20.996;2022-11-11T23:28:07;101892.40;;;11.40
68588;BMP180;55560;52.174;20.996;2022-11-11T23:31:03;101886.20;;;11.46
68588;BMP180;55560;52.174;20.996;2022-11-11T23:33:52;101890.20;;;11.50
68588;BMP180;55560;52.174;20.996;2022-11-11T23:36:39;101883.60;;;11.50
68588;BMP180;55560;52.174;20.996;2022-11-11T23:39:25;101889.60;;;11.50
68588;BMP180;55560;52.174;20.996;2022-11-11T23:42:12;101887.20;;;11.50
68588;BMP180;55560;52.174;20.996;2022-11-11T23:44:58;101891.40;;;11.50
68588;BMP180;55560;52.174;20.996;2022-11-11T23:47:45;101894.60;;;11.50
68588;BMP180;55560;52.174;20.996;2022-11-11T23:50:31;101892.40;;;11.50
68588;BMP180;55560;52.174;20.996;2022-11-11T23:53:18;101895.20;;;11.50
68588;BMP180;55560;52.174;20.996;2022-11-11T23:56:05;101896.60;;;11.50
68588;BMP180;55560;52.174;20.996;2022-11-11T23:58:52;101899.80;;;11.50
